Time;durP1;ratioP1;P1;durP2;ratioP2;P2;SDS_P1;SDS_P2;PMS_P1;PMS_P2;Temp;Humidity;BMP_temperature;BMP_pressure;BME280_temperature;BME280_humidity;BME280_pressure;Samples;Min_cycle;Max_cycle;Signal;HPM_P1;HPM_P2
2021/03/30 00:00:09;;;;;;;0.90;0.90;;;8.90;92.60;;;11.09;83.20;103057.63;5003225;28;97672;-69
2021/03/30 00:02:37;;;;;;;1.85;1.27;;;8.90;92.60;;;11.07;83.39;103064.34;5008934;28;97088;-69
2021/03/30 00:05:08;;;;;;;0.35;0.35;;;8.80;92.60;;;11.05;83.46;103064.56;5004553;28;97344;-69
2021/03/30 00:07:36;;;;;;;0.73;0.73;;;8.80;92.70;;;11.07;83.25;103057.06;5004666;28;96807;-69
2021/03/30 00:10:10;;;;;;;0.93;0.80;;;8.80;93.30;;;11.08;83.39;103064.06;5005587;28;98072;-69
2021/03/30 00:12:38;;;;;;;0.63;0.63;;;8.00;96.60;;;11.07;82.85;103065.13;5002757;28;96871;-69
2021/03/30 00:15:11;;;;;;;1.25;1.00;;;8.80;92.70;;;11.01;83.13;103068.00;4998398;28;97066;-69
2021/03/30 00:17:39;;;;;;;;;;;8.80;92.70;;;10.96;83.40;103071.44;5008763;28;98065;-68
2021/03/30 00:20:12;;;;;;;0.75;0.75;;;8.80;92.60;;;10.94;83.41;103070.88;5004603;28;99161;-67
2021/03/30 00:22:41;;;;;;;0.75;0.70;;;8.70;92.70;;;10.93;82.84;103077.28;5005670;28;97556;-68
2021/03/30 00:25:12;;;;;;;1.10;0.90;;;8.70;92.70;;;10.92;83.22;103069.47;5009442;28;96865;-68
2021/03/30 00:27:40;;;;;;;0.95;0.95;;;8.90;94.70;;;10.89;83.59;103065.44;5002280;28;97913;-68
2021/03/30 00:30:13;;;;;;;0.80;0.80;;;8.80;95.00;;;10.83;82.99;103065.59;5024619;28;97781;-68
2021/03/30 00:32:41;;;;;;;0.77;0.77;;;8.80;95.80;;;10.81;83.59;103059.66;5000051;28;96949;-67
2021/03/30 00:35:10;;;;;;;0.40;0.40;;;8.80;97.00;;;10.82;83.00;103063.19;5009689;28;97124;-67
2021/03/30 00:37:39;;;;;;;1.00;0.65;;;8.60;92.60;;;10.82;82.90;103068.53;5002778;28;97948;-67
2021/03/30 00:40:11;;;;;;;1.98;1.15;;;8.70;92.80;;;10.77;83.43;103065.75;5000372;28;96760;-67
2021/03/30 00:42:40;;;;;;;0.20;0.20;;;8.70;94.10;;;10.75;83.37;103062.50;5002567;28;97245;-67
2021/03/30 00:45:12;;;;;;;4.00;1.90;;;8.70;94.10;;;10.70;83.43;103060.59;5007139;28;97119;-67
2021/03/30 00:47:46;;;;;;;1.48;1.38;;;8.60;94.60;;;10.68;83.34;103059.19;5003858;28;97696;-67
2021/03/30 00:50:20;;;;;;;0.73;0.73;;;8.70;94.60;;;10.65;83.23;103055.13;4979307;28;97789;-67
2021/03/30 00:52:51;;;;;;;0.55;0.55;;;8.60;94.70;;;10.66;83.22;103053.28;4989259;28;96902;-67
2021/03/30 00:55:37;;;;;;;3.70;1.58;;;8.60;96.90;;;10.61;83.10;103047.84;5006711;28;97130;-67
2021/03/30 00:58:07;;;;;;;4.10;1.70;;;8.40;92.70;;;10.60;83.51;103057.75;5000779;28;102175;-68
2021/03/30 01:00:36;;;;;;;1.23;1.13;;;8.40;93.10;;;10.60;83.37;103068.47;5005722;28;96878;-68
2021/03/30 01:03:06;;;;;;;4.07;3.35;;;8.50;95.70;;;10.57;83.63;103066.28;4999596;28;97058;-68
2021/03/30 01:05:33;;;;;;;4.13;2.70;;;8.50;95.90;;;10.56;83.06;103070.00;5005173;28;97114;-68
2021/03/30 01:08:35;;;;;;;0.77;0.77;;;8.50;97.50;;;10.52;83.26;103070.78;5001900;28;98057;-68
2021/03/30 01:11:22;;;;;;;0.55;0.55;;;8.40;97.50;;;10.50;83.25;103072.84;5002987;28;96726;-68
2021/03/30 01:14:12;;;;;;;1.48;1.38;;;8.40;97.30;;;10.43;83.22;103059.63;5004823;28;96881;-68
2021/03/30 01:16:50;;;;;;;0.63;0.63;;;8.40;96.80;;;10.42;83.45;103065.22;4997191;28;97415;-68
2021/03/30 01:20:27;;;;;;;2.03;1.88;;;8.30;97.40;;;10.41;83.04;103060.91;5004047;28;98146;-68
2021/03/30 01:23:57;;;;;;;3.20;2.25;;;8.50;98.30;;;10.35;83.04;103065.38;4985741;28;96796;-68
2021/03/30 01:26:51;;;;;;;0.82;0.82;;;8.30;93.70;;;10.31;83.25;103066.13;4988703;28;97096;-67
2021/03/30 01:29:38;;;;;;;3.53;2.05;;;8.30;97.90;;;10.22;83.41;103064.91;5003361;28;96812;-67
2021/03/30 01:32:24;;;;;;;2.20;2.05;;;8.20;99.10;;;10.16;83.56;103063.19;5000706;28;96888;-67
2021/03/30 01:34:56;;;;;;;0.40;0.32;;;8.20;93.30;;;10.05;84.13;103061.38;5004987;28;96815;-67
2021/03/30 01:37:25;;;;;;;9.50;1.70;;;8.10;94.50;;;10.07;84.08;103059.28;5002135;28;96916;-67
2021/03/30 01:40:04;;;;;;;0.10;0.10;;;8.20;95.20;;;10.05;84.03;103056.81;4999029;28;96883;-67
2021/03/30 01:42:35;;;;;;;3.08;1.63;;;8.00;98.30;;;10.05;83.74;103056.03;5000913;28;97955;-67
2021/03/30 01:45:09;;;;;;;0.85;0.85;;;8.10;95.30;;;10.07;83.24;103061.97;5003452;28;97642;-67
2021/03/30 01:47:38;;;;;;;0.85;0.82;;;8.10;95.30;;;10.06;83.63;103065.69;5014096;28;96811;-68
2021/03/30 01:50:10;;;;;;;1.75;1.55;;;8.00;95.10;;;10.00;83.97;103059.38;5015545;28;116673;-67
2021/03/30 01:52:38;;;;;;;4.55;0.88;;;8.00;95.30;;;9.97;83.66;103054.53;5002356;28;97687;-69
2021/03/30 01:55:12;;;;;;;2.17;1.60;;;8.00;95.30;;;9.98;83.50;103047.31;5001088;28;98783;-68
2021/03/30 01:57:45;;;;;;;1.92;0.93;;;8.00;95.60;;;9.95;83.56;103055.84;4998159;28;98051;-67
2021/03/30 02:00:18;;;;;;;4.05;3.05;;;7.90;97.20;;;9.94;83.67;103049.66;4999012;28;97782;-67
2021/03/30 02:02:47;;;;;;;1.27;1.20;;;7.90;98.40;;;9.94;83.45;103054.22;5003315;28;97295;-67
2021/03/30 02:05:17;;;;;;;2.22;2.03;;;7.90;98.60;;;9.92;83.08;103051.75;4996916;28;96837;-67
2021/03/30 02:07:52;;;;;;;2.05;1.10;;;7.90;96.30;;;9.88;83.49;103053.28;5004250;28;96938;-67
2021/03/30 02:10:30;;;;;;;1.70;1.60;;;7.90;96.70;;;9.86;83.38;103051.91;4991210;28;97185;-67
2021/03/30 02:13:00;;;;;;;1.73;1.20;;;7.90;97.20;;;9.82;83.66;103054.25;5002681;28;97860;-67
2021/03/30 02:15:32;;;;;;;3.33;2.40;;;7.80;94.40;;;9.82;83.44;103054.25;5004935;28;97719;-67
2021/03/30 02:18:09;;;;;;;6.85;1.75;;;7.80;94.60;;;9.78;83.53;103053.13;5003665;28;97108;-67
2021/03/30 02:20:40;;;;;;;2.03;1.55;;;7.70;95.80;;;9.77;83.17;103058.69;5001904;28;96929;-67
2021/03/30 02:23:14;;;;;;;1.17;1.17;;;7.70;94.30;;;9.74;83.35;103059.19;5002233;28;97003;-67
2021/03/30 02:25:47;;;;;;;1.70;1.30;;;7.70;94.70;;;9.72;83.18;103061.28;5002664;28;97891;-67
2021/03/30 02:28:18;;;;;;;2.92;1.98;;;7.70;95.00;;;9.70;83.06;103060.72;5020774;28;96846;-67
2021/03/30 02:30:50;;;;;;;0.73;0.73;;;7.70;99.90;;;9.65;83.40;103058.75;4999914;28;96835;-67
2021/03/30 02:33:23;;;;;;;1.80;0.88;;;7.60;99.90;;;9.64;83.32;103059.00;4993817;28;97489;-67
2021/03/30 02:35:55;;;;;;;0.85;0.85;;;7.50;97.70;;;9.62;83.58;103069.13;5007961;28;98224;-67
2021/03/30 02:38:25;;;;;;;5.32;2.10;;;7.50;94.80;;;9.62;83.24;103061.09;5001339;28;96670;-68
2021/03/30 02:40:54;;;;;;;1.40;1.30;;;7.60;99.40;;;9.55;83.44;103055.06;5002060;28;96851;-67
2021/03/30 02:43:23;;;;;;;0.65;0.65;;;7.70;98.80;;;9.52;83.42;103053.69;4999425;28;98104;-67
2021/03/30 02:45:54;;;;;;;1.75;1.60;;;7.60;95.70;;;9.50;83.24;103053.13;4999845;28;97294;-67
2021/03/30 02:48:22;;;;;;;1.77;1.55;;;7.30;92.80;;;9.50;83.40;103052.28;5000527;28;96734;-67
2021/03/30 02:50:51;;;;;;;9.05;1.00;;;7.30;92.90;;;9.51;83.01;103053.91;5006347;28;97150;-67
2021/03/30 02:53:20;;;;;;;1.13;1.02;;;7.30;93.00;;;9.47;83.25;103058.94;5001955;28;97789;-67
2021/03/30 02:55:50;;;;;;;2.20;1.35;;;7.30;93.00;;;9.44;83.11;103053.25;4999332;28;98157;-67
2021/03/30 02:58:21;;;;;;;3.80;2.50;;;7.30;93.20;;;9.41;83.30;103054.53;5000716;28;97100;-67
2021/03/30 03:00:50;;;;;;;1.00;1.00;;;8.20;96.00;;;9.39;83.15;103061.97;5000558;28;97463;-67
2021/03/30 03:03:19;;;;;;;0.52;0.52;;;7.20;92.80;;;9.37;83.24;103055.25;5000189;28;97927;-69
2021/03/30 03:05:47;;;;;;;2.95;1.55;;;7.10;92.80;;;9.35;83.27;103057.34;5003016;28;97814;-69
2021/03/30 03:08:16;;;;;;;0.77;0.77;;;7.10;92.80;;;9.33;83.29;103062.13;5010452;28;97996;-69
2021/03/30 03:10:45;;;;;;;2.85;1.38;;;7.10;92.80;;;9.31;83.06;103064.22;5004437;28;97251;-69
2021/03/30 03:13:15;;;;;;;3.40;2.10;;;7.10;92.80;;;9.27;83.19;103063.06;4998331;28;97038;-69
2021/03/30 03:15:45;;;;;;;3.97;2.42;;;7.00;92.80;;;9.25;83.03;103059.81;5005235;28;97854;-69
2021/03/30 03:18:15;;;;;;;0.95;0.68;;;7.00;92.80;;;9.23;83.01;103061.09;4989867;28;96770;-69
2021/03/30 03:20:50;;;;;;;1.40;1.30;;;7.00;92.80;;;9.25;83.06;103059.00;5001031;28;96943;-69
2021/03/30 03:23:19;;;;;;;3.10;1.35;;;7.00;92.80;;;9.24;83.10;103065.41;5006792;28;98933;-69
2021/03/30 03:25:48;;;;;;;3.03;1.70;;;7.00;92.80;;;9.17;83.25;103062.06;5006551;28;98359;-69
2021/03/30 03:28:16;;;;;;;1.20;1.08;;;6.90;92.80;;;9.15;83.27;103069.47;5018174;28;96769;-69
2021/03/30 03:30:44;;;;;;;0.90;0.70;;;6.90;92.80;;;9.11;83.06;103063.78;4997740;28;96881;-69
2021/03/30 03:33:23;;;;;;;7.10;1.90;;;6.90;92.80;;;9.08;83.17;103074.97;5009025;28;98103;-69
2021/03/30 03:36:09;;;;;;;8.32;2.13;;;6.90;92.80;;;9.06;82.93;103060.19;5004798;28;97713;-69
2021/03/30 03:38:39;;;;;;;1.13;1.02;;;6.90;92.80;;;9.04;82.85;103070.31;5006610;28;97117;-69
2021/03/30 03:41:11;;;;;;;3.83;1.73;;;6.80;92.80;;;9.02;83.39;103073.25;5006348;28;96863;-69
2021/03/30 03:43:39;;;;;;;3.20;1.00;;;6.80;92.80;;;9.00;83.06;103067.28;5021671;28;97998;-69
2021/03/30 03:46:07;;;;;;;2.45;1.30;;;6.80;92.80;;;8.98;83.15;103076.59;5005899;28;97123;-69
2021/03/30 03:48:34;;;;;;;6.90;2.50;;;6.70;92.80;;;8.93;83.01;103069.28;4977382;28;96832;-69
2021/03/30 03:51:07;;;;;;;0.70;0.70;;;6.70;92.80;;;8.89;83.13;103068.13;5006300;28;97121;-69
2021/03/30 03:53:37;;;;;;;3.35;1.33;;;6.70;92.80;;;8.82;83.35;103064.75;5005582;28;96796;-69
2021/03/30 03:56:08;;;;;;;1.00;0.85;;;6.70;92.80;;;8.78;83.35;103066.28;5002299;28;96842;-69
2021/03/30 03:58:44;;;;;;;3.55;2.33;;;6.70;92.80;;;8.75;83.17;103071.25;5016554;28;97069;-69
2021/03/30 04:01:20;;;;;;;1.65;1.55;;;6.60;92.80;;;8.71;83.49;103070.94;4989510;28;97027;-69
2021/03/30 04:03:53;;;;;;;0.60;0.60;;;6.60;92.80;;;8.68;83.63;103074.03;5001094;28;96864;-69
2021/03/30 04:06:31;;;;;;;1.60;1.40;;;6.60;92.90;;;8.66;83.58;103078.81;5006227;28;97668;-69
2021/03/30 04:09:05;;;;;;;10.07;3.42;;;6.60;92.90;;;8.63;83.18;103087.28;5006777;28;96702;-69
2021/03/30 04:11:33;;;;;;;3.03;2.50;;;6.60;93.70;;;8.61;83.45;103081.38;5002681;28;96962;-69
2021/03/30 04:14:02;;;;;;;4.55;1.35;;;6.60;94.50;;;8.58;83.14;103079.16;4999779;28;98961;-69
2021/03/30 04:16:31;;;;;;;2.90;1.77;;;6.50;93.90;;;8.53;83.14;103079.03;5006221;28;97254;-69
2021/03/30 04:18:59;;;;;;;1.90;1.65;;;6.50;94.00;;;8.53;83.50;103091.56;5003473;28;96686;-69
2021/03/30 04:21:33;;;;;;;3.78;0.65;;;6.50;94.00;;;8.49;83.16;103085.06;5000262;28;96809;-69
2021/03/30 04:24:03;;;;;;;8.00;4.70;;;6.50;94.40;;;8.47;83.57;103090.66;5006932;28;97906;-69
2021/03/30 04:26:32;;;;;;;1.38;1.33;;;6.50;95.80;;;8.48;83.38;103083.44;5004153;28;96852;-69
2021/03/30 04:29:00;;;;;;;0.95;0.95;;;6.70;98.20;;;8.46;83.28;103096.22;5000247;28;96726;-69
2021/03/30 04:31:32;;;;;;;1.40;1.33;;;6.50;97.30;;;8.45;82.99;103095.41;5000729;28;97122;-69
2021/03/30 04:34:00;;;;;;;2.95;2.47;;;6.40;97.10;;;8.40;83.27;103092.59;4998316;28;96688;-69
2021/03/30 04:36:31;;;;;;;1.20;1.20;;;6.50;99.90;;;8.36;83.03;103099.44;5005454;28;97865;-69
2021/03/30 04:38:58;;;;;;;2.72;2.40;;;6.30;98.50;;;8.27;83.29;103098.16;5008872;28;96826;-69
2021/03/30 04:41:26;;;;;;;1.98;0.90;;;6.30;99.10;;;8.22;83.44;103099.88;5005363;28;96822;-69
2021/03/30 04:43:54;;;;;;;12.32;3.17;;;6.30;94.50;;;8.17;83.19;103102.38;5000131;28;97888;-69
2021/03/30 04:46:21;;;;;;;0.28;0.28;;;6.30;94.50;;;8.16;83.50;103106.94;5002116;28;97612;-69
2021/03/30 04:48:52;;;;;;;1.42;1.05;;;6.20;95.20;;;8.11;83.38;103103.31;5004839;28;96812;-69
2021/03/30 04:51:20;;;;;;;3.53;0.93;;;6.10;92.70;;;8.11;83.60;103117.47;5003674;28;97084;-69
2021/03/30 04:53:48;;;;;;;0.60;0.60;;;6.00;92.70;;;8.07;83.49;103118.16;4997427;28;97797;-70
2021/03/30 04:56:16;;;;;;;1.08;0.95;;;6.00;92.70;;;8.03;83.37;103115.09;5005794;28;96792;-69
2021/03/30 04:58:43;;;;;;;3.53;2.28;;;6.00;92.70;;;7.99;83.93;103116.59;4999405;28;96833;-69
2021/03/30 05:01:11;;;;;;;2.50;1.40;;;5.90;92.70;;;7.94;83.77;103121.81;5010223;28;96910;-69
2021/03/30 05:03:39;;;;;;;22.58;2.25;;;5.90;92.70;;;7.93;83.71;103125.53;5006404;28;97938;-69
2021/03/30 05:06:07;;;;;;;5.32;2.80;;;5.90;92.70;;;7.91;84.27;103126.78;4999316;28;97224;-68
2021/03/30 05:08:35;;;;;;;7.20;2.22;;;5.90;92.70;;;7.87;84.03;103126.44;4999991;28;96852;-69
2021/03/30 05:11:05;;;;;;;11.00;4.22;;;5.80;92.70;;;7.85;84.04;103136.53;4989607;28;96970;-69
2021/03/30 05:13:34;;;;;;;5.13;2.65;;;5.80;92.70;;;7.84;83.60;103129.56;4999492;28;97014;-69
2021/03/30 05:16:04;;;;;;;3.38;2.22;;;5.80;92.70;;;7.85;84.07;103131.19;5002316;28;101890;-69
2021/03/30 05:18:33;;;;;;;1.67;1.52;;;5.80;92.80;;;7.88;83.39;103129.91;4997196;28;96790;-69
2021/03/30 05:21:03;;;;;;;2.38;2.17;;;5.80;92.80;;;7.90;83.40;103130.50;5001956;28;96867;-69
2021/03/30 05:23:31;;;;;;;2.67;2.47;;;5.80;92.80;;;8.49;81.62;103139.31;5006040;28;97273;-69
2021/03/30 05:25:59;;;;;;;1.30;0.60;;;5.80;92.80;;;8.71;80.49;103135.06;5005208;28;97676;-69
2021/03/30 05:28:32;;;;;;;4.22;2.88;;;5.80;92.80;;;8.78;79.96;103137.59;5007551;28;97448;-69
2021/03/30 05:31:00;;;;;;;1.33;1.23;;;5.80;92.80;;;8.67;80.48;103141.09;5001991;28;96902;-69
2021/03/30 05:33:32;;;;;;;5.27;3.40;;;5.80;92.80;;;8.71;80.57;103143.09;4990644;28;97892;-69
2021/03/30 05:36:00;;;;;;;2.50;2.30;;;5.90;92.80;;;8.79;80.09;103142.75;5006038;28;97873;-69
2021/03/30 05:38:31;;;;;;;2.70;1.63;;;5.90;92.80;;;8.87;79.96;103149.59;4997933;28;97576;-69
2021/03/30 05:41:06;;;;;;;4.78;2.05;;;5.90;92.80;;;8.95;79.69;103147.38;5006386;28;96876;-69
2021/03/30 05:43:36;;;;;;;1.42;1.05;;;5.90;92.80;;;8.93;79.69;103152.16;5000420;28;97851;-69
2021/03/30 05:46:06;;;;;;;2.63;2.05;;;6.00;92.80;;;8.99;79.68;103153.09;5003143;28;97650;-69
2021/03/30 05:48:34;;;;;;;2.05;1.95;;;6.00;92.80;;;9.00;79.71;103158.19;4985802;28;96935;-69
2021/03/30 05:51:06;;;;;;;5.93;2.97;;;6.00;92.80;;;9.09;79.47;103156.00;5003697;28;97066;-69
2021/03/30 05:53:36;;;;;;;8.82;2.60;;;6.00;92.80;;;9.11;79.77;103156.56;5003646;28;96895;-69
2021/03/30 05:56:07;;;;;;;5.75;2.72;;;6.10;92.80;;;9.07;79.87;103152.72;5004549;28;96895;-69
2021/03/30 05:58:39;;;;;;;0.73;0.73;;;6.10;92.80;;;9.12;80.13;103161.69;5004965;28;99044;-69
2021/03/30 06:01:14;;;;;;;0.98;0.73;;;6.20;92.80;;;9.11;79.75;103168.09;5000658;28;96817;-69
2021/03/30 06:03:44;;;;;;;3.08;1.38;;;6.20;92.80;;;9.20;79.78;103165.88;5000700;28;97887;-69
2021/03/30 06:06:12;;;;;;;13.73;2.15;;;6.30;92.80;;;9.33;80.02;103169.13;4997843;28;97717;-69
2021/03/30 06:08:44;;;;;;;8.77;3.20;;;6.30;92.80;;;9.53;79.44;103178.41;5001444;28;96773;-69
2021/03/30 06:11:12;;;;;;;1.48;1.35;;;6.40;92.90;;;9.67;79.49;103174.41;5001513;28;97343;-69
2021/03/30 06:13:53;;;;;;;2.50;2.33;;;6.50;92.90;;;9.86;79.95;103175.91;5000691;28;98972;-69
2021/03/30 06:16:31;;;;;;;2.92;1.58;;;6.60;93.00;;;10.13;80.09;103173.50;5000078;28;96788;-69
2021/03/30 06:19:17;;;;;;;3.90;1.75;;;6.70;93.10;;;10.72;79.56;103170.25;5000100;28;97166;-69
2021/03/30 06:21:58;;;;;;;13.13;3.08;;;7.00;93.30;;;12.28;77.05;103178.31;4973974;28;97512;-69
2021/03/30 06:24:32;;;;;;;5.63;2.95;;;7.70;94.50;;;16.87;65.33;103167.97;4996176;28;98252;-68
2021/03/30 06:27:29;;;;;;;6.18;2.85;;;9.50;92.40;;;19.96;58.21;103184.97;4997157;28;98831;-68
2021/03/30 06:30:00;;;;;;;9.85;4.57;;;11.40;90.60;;;21.80;55.23;103177.56;5000004;28;98540;-68
2021/03/30 06:32:36;;;;;;;8.75;3.53;;;13.00;88.30;;;23.83;51.81;103175.59;5000684;28;97056;-68
2021/03/30 06:35:15;;;;;;;20.88;4.60;;;14.70;85.90;;;25.62;49.22;103179.00;5000274;28;97260;-68
2021/03/30 06:37:43;;;;;;;10.45;4.43;;;16.20;83.80;;;27.17;47.81;103176.88;5005805;28;97776;-68
2021/03/30 06:40:20;;;;;;;9.35;4.13;;;17.70;81.90;;;28.75;46.21;103191.09;5006129;28;96765;-69
2021/03/30 06:42:51;;;;;;;15.90;4.38;;;19.00;80.30;;;30.02;45.39;103178.22;5007406;28;97379;-69
2021/03/30 06:45:29;;;;;;;10.82;4.93;;;20.30;78.90;;;31.51;43.83;103179.03;5006271;28;96976;-69
2021/03/30 06:48:04;;;;;;;7.95;2.78;;;21.60;77.40;;;32.19;43.92;103170.78;5004881;28;97819;-69
2021/03/30 06:50:36;;;;;;;16.02;4.93;;;22.50;76.40;;;33.41;42.71;103165.41;5004894;28;96848;-69
2021/03/30 06:53:17;;;;;;;12.40;3.47;;;23.40;75.50;;;34.27;42.44;103169.19;5005347;28;98072;-69
2021/03/30 06:55:51;;;;;;;8.75;4.38;;;24.40;74.60;;;35.23;41.76;103173.75;5004163;28;97864;-69
2021/03/30 06:58:22;;;;;;;11.20;4.10;;;25.20;74.00;;;36.24;41.07;103163.47;5001407;28;96945;-70
2021/03/30 07:00:51;;;;;;;19.08;5.32;;;26.00;73.40;;;36.83;41.00;103167.41;5002694;28;97780;-70
2021/03/30 07:03:23;;;;;;;13.02;4.55;;;26.70;73.00;;;36.45;42.57;103157.59;5006199;28;97167;-70
2021/03/30 07:05:53;;;;;;;10.65;4.50;;;27.10;72.80;;;36.57;43.42;103155.03;5007897;28;99101;-70
2021/03/30 07:08:23;;;;;;;18.63;4.95;;;27.40;73.70;;;36.54;44.22;103155.06;5001889;28;96807;-70
2021/03/30 07:10:53;;;;;;;17.40;4.00;;;27.70;74.10;;;38.14;41.94;103157.78;5009289;28;97126;-70
2021/03/30 07:13:24;;;;;;;9.45;4.13;;;28.10;74.60;;;39.51;40.37;103158.81;5012251;28;96771;-70
2021/03/30 07:16:06;;;;;;;7.80;3.65;;;28.90;74.00;;;40.35;39.19;103153.53;5004809;28;97891;-70
2021/03/30 07:18:39;;;;;;;15.50;4.13;;;29.70;72.60;;;41.05;39.24;103150.47;5009427;28;96969;-70
2021/03/30 07:21:16;;;;;;;16.35;4.28;;;30.30;72.50;;;41.79;38.26;103152.22;5005325;28;96856;-70
2021/03/30 07:23:52;;;;;;;9.40;4.70;;;30.90;72.30;;;42.38;37.56;103146.28;5004176;28;97145;-70
2021/03/30 07:26:24;;;;;;;38.28;5.80;;;31.50;71.30;;;42.19;38.53;103148.25;5005501;28;97949;-70
2021/03/30 07:29:04;;;;;;;8.70;4.40;;;31.90;70.80;;;42.82;38.12;103148.47;5001534;28;97708;-70
2021/03/30 07:31:46;;;;;;;10.95;4.35;;;32.30;70.50;;;42.69;38.92;103139.38;5002349;28;96859;-71
2021/03/30 07:34:19;;;;;;;13.10;3.97;;;32.60;70.00;;;40.88;42.53;103135.00;5002199;28;96843;-70
2021/03/30 07:37:03;;;;;;;11.27;4.82;;;32.50;70.30;;;39.59;44.96;103134.97;5000971;28;97802;-70
2021/03/30 07:39:44;;;;;;;14.50;5.03;;;32.00;71.00;;;38.52;47.48;103141.31;5004500;28;97662;-70
2021/03/30 07:42:12;;;;;;;11.10;4.28;;;31.60;72.80;;;39.32;45.10;103141.31;5003919;28;97204;-70
2021/03/30 07:44:41;;;;;;;11.05;4.75;;;31.30;73.00;;;40.74;42.13;103127.78;5000409;28;96770;-70
2021/03/30 07:47:10;;;;;;;13.45;4.30;;;31.30;72.20;;;38.84;45.87;103122.53;5004531;28;98053;-70
2021/03/30 07:49:41;;;;;;;13.00;3.67;;;31.20;72.80;;;38.97;45.16;103133.81;5006116;28;99112;-70
2021/03/30 07:52:19;;;;;;;11.38;4.97;;;30.90;73.10;;;38.98;45.28;103143.81;5004883;28;96869;-70
2021/03/30 07:55:20;;;;;;;9.57;4.53;;;30.70;73.00;;;37.21;48.46;103144.41;5003343;28;97075;-71
2021/03/30 07:58:07;;;;;;;9.20;4.40;;;30.40;73.20;;;35.84;50.76;103139.22;5003488;28;96772;-71
2021/03/30 08:00:54;;;;;;;14.77;4.68;;;29.80;78.40;;;35.26;51.57;103142.25;5006062;28;96855;-71
2021/03/30 08:03:31;;;;;;;14.23;3.78;;;29.20;77.30;;;34.88;52.25;103137.78;5002867;28;97507;-71
2021/03/30 08:06:21;;;;;;;9.43;4.65;;;28.70;81.40;;;35.01;51.73;103143.66;5000449;28;96702;-70
2021/03/30 08:09:16;;;;;;;8.52;3.80;;;28.40;76.00;;;36.32;48.55;103142.59;5002451;28;97862;-70
2021/03/30 08:11:54;;;;;;;10.45;4.90;;;28.30;76.80;;;36.18;48.19;103146.41;5002719;28;97686;-70
2021/03/30 08:14:40;;;;;;;7.63;3.72;;;28.30;76.00;;;34.94;51.03;103150.06;5002653;28;96906;-70
2021/03/30 08:17:20;;;;;;;16.65;5.72;;;28.10;75.90;;;35.22;49.40;103151.81;5000637;28;96998;-70
2021/03/30 08:20:07;;;;;;;12.30;4.68;;;27.90;75.70;;;35.55;48.58;103146.31;4989907;28;98098;-70
2021/03/30 08:23:10;;;;;;;10.13;4.15;;;27.80;75.70;;;35.07;49.63;103151.13;5001028;28;96799;-70
2021/03/30 08:25:39;;;;;;;10.07;3.67;;;27.70;76.20;;;37.21;44.89;103158.38;5002094;28;97613;-70
2021/03/30 08:28:07;;;;;;;12.80;4.30;;;27.80;76.40;;;39.35;41.07;103155.28;5003190;28;97448;-71
2021/03/30 08:30:57;;;;;;;13.60;4.05;;;28.30;76.90;;;40.72;39.12;103155.59;5008172;28;96810;-69
2021/03/30 08:33:33;;;;;;;7.63;3.78;;;29.00;75.80;;;41.22;38.26;103150.66;5003368;28;98827;-70
2021/03/30 08:36:25;;;;;;;4.40;2.83;;;29.70;74.80;;;41.66;38.30;103151.53;4999085;28;96923;-70
2021/03/30 08:39:04;;;;;;;12.02;4.32;;;30.30;74.10;;;40.99;40.51;103146.66;5008815;28;96747;-70
2021/03/30 08:42:13;;;;;;;18.35;4.00;;;30.90;74.50;;;41.72;39.88;103144.81;5003964;28;96758;-70
2021/03/30 08:44:50;;;;;;;13.55;4.00;;;31.30;73.90;;;42.29;38.84;103144.22;5002272;28;98080;-70
2021/03/30 08:47:39;;;;;;;8.10;3.67;;;31.70;73.70;;;41.84;39.44;103138.34;4997380;28;98605;-70
2021/03/30 08:50:22;;;;;;;12.43;5.50;;;32.10;72.10;;;41.19;41.56;103142.31;5000336;28;97111;-70
2021/03/30 08:52:52;;;;;;;8.10;3.88;;;32.20;72.00;;;41.18;41.42;103139.97;5000904;28;97863;-70
2021/03/30 08:55:30;;;;;;;11.85;3.95;;;32.20;72.40;;;42.46;39.21;103139.94;5001542;28;96901;-70
2021/03/30 08:58:03;;;;;;;6.90;4.10;;;32.30;72.70;;;43.00;38.78;103151.38;5001226;28;96816;-70
2021/03/30 09:00:32;;;;;;;8.77;3.53;;;32.50;72.40;;;42.94;39.17;103143.97;5003393;28;97134;-70
2021/03/30 09:03:05;;;;;;;8.50;4.03;;;32.80;72.00;;;42.69;39.31;103147.84;5002928;28;97919;-70
2021/03/30 09:05:39;;;;;;;6.75;3.42;;;32.90;72.60;;;42.70;39.75;103146.59;5001967;28;97453;-70
2021/03/30 09:08:10;;;;;;;9.93;4.07;;;33.00;72.70;;;42.73;40.78;103142.03;5003776;28;96790;-70
2021/03/30 09:10:38;;;;;;;6.17;3.57;;;33.10;72.70;;;42.51;40.99;103153.41;5005831;28;97796;-70
2021/03/30 09:13:14;;;;;;;10.80;3.78;;;33.30;72.20;;;42.08;41.48;103147.91;5000196;28;98064;-70
2021/03/30 09:15:43;;;;;;;9.07;3.67;;;33.20;72.00;;;41.77;42.00;103140.63;5004289;28;97355;-70
2021/03/30 09:18:23;;;;;;;6.70;3.47;;;33.20;72.20;;;41.41;42.97;103143.94;4999501;28;96811;-70
2021/03/30 09:21:09;;;;;;;12.30;3.55;;;33.10;72.50;;;40.74;44.49;103143.88;5005150;28;97071;-70
2021/03/30 09:23:39;;;;;;;10.70;3.25;;;33.00;72.70;;;40.42;45.44;103153.31;5006168;28;98097;-70
2021/03/30 09:26:12;;;;;;;7.82;3.53;;;32.90;74.10;;;40.58;45.72;103144.00;5010557;28;97726;-70
2021/03/30 09:28:54;;;;;;;9.48;3.30;;;33.10;75.30;;;40.02;47.71;103148.56;5003312;28;96975;-70
2021/03/30 09:31:24;;;;;;;8.50;2.90;;;33.10;76.20;;;39.51;49.36;103150.41;4996463;28;97128;-70
2021/03/30 09:33:55;;;;;;;7.97;3.22;;;33.20;78.50;;;38.83;50.85;103142.59;5002490;28;98588;-70
2021/03/30 09:36:26;;;;;;;7.20;3.30;;;33.30;76.10;;;38.37;51.87;103154.09;5006398;28;98206;-70
2021/03/30 09:38:57;;;;;;;22.20;3.80;;;33.30;76.20;;;37.99;53.06;103148.09;5000420;28;96856;-70
2021/03/30 09:41:40;;;;;;;7.53;3.42;;;33.20;76.40;;;37.73;53.76;103149.00;5000209;28;96639;-70
2021/03/30 09:44:10;;;;;;;5.00;1.95;;;33.20;76.80;;;37.50;55.07;103150.28;5009862;28;97899;-70
2021/03/30 09:46:46;;;;;;;5.00;3.03;;;33.20;75.60;;;37.11;55.91;103142.59;5007229;28;97823;-70
2021/03/30 09:49:18;;;;;;;10.90;3.03;;;33.20;74.20;;;36.73;57.23;103144.00;5003725;28;96842;-70
2021/03/30 09:51:47;;;;;;;3.58;2.28;;;33.20;74.60;;;36.39;58.37;103139.72;4996001;28;98157;-70
2021/03/30 09:54:29;;;;;;;6.32;2.97;;;33.20;74.30;;;35.95;59.53;103151.06;5005145;28;97051;-70
2021/03/30 09:57:10;;;;;;;5.28;2.95;;;33.10;73.80;;;35.38;60.91;103143.72;5002617;28;97606;-70
2021/03/30 09:59:38;;;;;;;3.78;2.15;;;32.90;74.30;;;34.88;62.08;103150.91;4999775;28;97289;-70
2021/03/30 10:02:07;;;;;;;5.07;2.55;;;32.60;74.90;;;34.50;62.48;103149.94;4999849;28;97848;-70
2021/03/30 10:04:37;;;;;;;2.05;1.65;;;32.30;74.60;;;34.11;62.66;103148.56;5001709;28;97991;-70
2021/03/30 10:07:33;;;;;;;5.00;2.58;;;32.00;73.70;;;33.70;62.74;103144.72;5001489;28;97783;-70
2021/03/30 10:10:09;;;;;;;3.80;2.83;;;31.60;73.80;;;33.57;63.84;103140.78;5000912;28;99556;-70
2021/03/30 10:12:50;;;;;;;6.55;3.30;;;31.40;75.40;;;33.23;64.06;103152.72;5002571;28;97223;-70
2021/03/30 10:15:40;;;;;;;7.53;4.03;;;31.10;74.80;;;32.87;65.33;103146.34;4997593;28;98525;-70
2021/03/30 10:18:10;;;;;;;5.95;2.90;;;30.80;76.60;;;32.73;65.11;103145.56;5003018;28;97693;-69
2021/03/30 10:20:45;;;;;;;6.30;2.08;;;30.50;76.40;;;32.66;65.15;103146.31;5004248;28;96862;-70
2021/03/30 10:23:18;;;;;;;9.13;4.22;;;30.20;77.20;;;32.61;64.96;103143.13;4998495;28;96929;-69
2021/03/30 10:25:48;;;;;;;6.75;2.67;;;30.00;77.20;;;32.56;65.01;103146.28;4993658;28;96928;-68
2021/03/30 10:28:28;;;;;;;4.75;2.58;;;29.70;77.80;;;32.50;64.53;103142.31;4999179;28;97880;-68
2021/03/30 10:31:00;;;;;;;4.95;1.40;;;29.60;77.80;;;32.23;64.47;103135.50;5004909;28;96904;-67
2021/03/30 10:33:39;;;;;;;3.83;2.22;;;29.20;77.70;;;31.96;64.49;103131.41;5004026;28;97316;-68
2021/03/30 10:36:10;;;;;;;4.38;2.88;;;28.80;77.80;;;31.64;65.06;103130.44;4998571;28;97841;-68
2021/03/30 10:39:07;;;;;;;2.40;1.30;;;28.50;78.40;;;31.71;64.85;103135.25;4993178;28;97735;-67
2021/03/30 10:41:39;;;;;;;2.30;1.42;;;28.20;78.50;;;31.59;64.40;103136.34;4992765;28;97385;-67
2021/03/30 10:44:09;;;;;;;3.67;2.03;;;28.10;79.40;;;31.42;65.41;103131.47;5001929;28;96861;-67
2021/03/30 10:46:46;;;;;;;2.95;1.92;;;27.90;80.20;;;31.43;65.11;103135.81;4996534;28;96910;-67